createdAt,value
2022-12-15T00:00:13.595Z,-68
2022-12-15T00:02:40.233Z,-69
2022-12-15T00:05:06.809Z,-68
2022-12-15T00:07:33.297Z,-69
2022-12-15T00:09:59.805Z,-69
2022-12-15T00:12:26.309Z,-69
2022-12-15T00:14:52.809Z,-68
2022-12-15T00:17:19.311Z,-68
2022-12-15T00:19:45.817Z,-68
2022-12-15T00:22:12.314Z,-69
2022-12-15T00:24:38.808Z,-68
2022-12-15T00:27:05.297Z,-68
2022-12-15T00:29:31.783Z,-68
2022-12-15T00:31:58.325Z,-69
2022-12-15T00:34:24.873Z,-68
2022-12-15T00:36:51.380Z,-69
2022-12-15T00:39:17.884Z,-69
2022-12-15T00:41:44.364Z,-68
2022-12-15T00:44:14.427Z,-69
2022-12-15T00:46:42.517Z,-69
2022-12-15T00:49:09.073Z,-68
2022-12-15T00:51:35.584Z,-68
2022-12-15T00:54:10.735Z,-68
2022-12-15T00:56:39.765Z,-68
2022-12-15T00:59:06.280Z,-69
2022-12-15T01:01:32.918Z,-68
2022-12-15T01:03:59.611Z,-69
2022-12-15T01:06:26.175Z,-69
2022-12-15T01:08:52.671Z,-69
2022-12-15T01:11:19.172Z,-69
2022-12-15T01:13:45.677Z,-69
2022-12-15T01:16:16.589Z,-69
2022-12-15T01:18:43.157Z,-69
2022-12-15T01:21:16.197Z,-69
2022-12-15T01:23:42.709Z,-69
2022-12-15T01:26:09.218Z,-69
2022-12-15T01:28:35.730Z,-69
2022-12-15T01:31:02.240Z,-68
2022-12-15T01:33:29.233Z,-69
2022-12-15T01:35:56.090Z,-69
2022-12-15T01:38:22.588Z,-70
2022-12-15T01:40:49.118Z,-69
2022-12-15T01:43:15.631Z,-69
2022-12-15T01:45:42.126Z,-69
2022-12-15T01:48:08.609Z,-68
2022-12-15T01:50:35.101Z,-69
2022-12-15T01:53:01.593Z,-69
2022-12-15T01:55:28.095Z,-68
2022-12-15T01:57:54.594Z,-68
2022-12-15T02:00:21.086Z,-69
2022-12-15T02:02:47.756Z,-69
2022-12-15T02:05:14.275Z,-68
2022-12-15T02:07:40.759Z,-68
2022-12-15T02:10:07.228Z,-68
2022-12-15T02:12:33.710Z,-68
2022-12-15T02:15:00.182Z,-68
2022-12-15T02:17:26.649Z,-68
2022-12-15T02:19:55.630Z,-68
2022-12-15T02:22:22.124Z,-68
2022-12-15T02:24:49.776Z,-68
2022-12-15T02:27:16.414Z,-68
2022-12-15T02:29:43.655Z,-68
2022-12-15T02:32:10.215Z,-68
2022-12-15T02:34:36.719Z,-69
2022-12-15T02:37:03.192Z,-68
2022-12-15T02:39:29.646Z,-68
2022-12-15T02:44:41.303Z,-70
2022-12-15T02:47:07.778Z,-70
2022-12-15T02:49:34.246Z,-70
2022-12-15T02:52:00.720Z,-70
2022-12-15T02:54:27.186Z,-70
2022-12-15T02:56:53.641Z,-70
2022-12-15T02:59:20.109Z,-69
2022-12-15T03:01:46.832Z,-69
2022-12-15T03:04:16.442Z,-70
2022-12-15T03:06:42.922Z,-70
2022-12-15T03:09:09.399Z,-70
2022-12-15T03:11:35.859Z,-70
2022-12-15T03:14:02.345Z,-70
2022-12-15T03:16:28.856Z,-70
2022-12-15T03:18:55.386Z,-70
2022-12-15T03:21:21.842Z,-70
2022-12-15T03:23:48.342Z,-70
2022-12-15T03:26:14.811Z,-70
2022-12-15T03:28:41.283Z,-70
2022-12-15T03:31:07.769Z,-70
2022-12-15T03:33:34.682Z,-69
2022-12-15T03:36:01.516Z,-69
2022-12-15T03:38:28.031Z,-69
2022-12-15T03:40:55.722Z,-69
2022-12-15T03:43:22.164Z,-69
2022-12-15T03:45:48.670Z,-69
2022-12-15T03:48:15.191Z,-69
2022-12-15T03:50:41.683Z,-69
2022-12-15T03:53:08.148Z,-69
2022-12-15T03:55:34.615Z,-69
2022-12-15T03:58:01.069Z,-69
2022-12-15T04:00:27.536Z,-69
2022-12-15T04:02:54.137Z,-69
2022-12-15T04:05:20.816Z,-69
2022-12-15T04:07:47.272Z,-69
2022-12-15T04:10:13.748Z,-69
2022-12-15T04:12:40.210Z,-69
2022-12-15T04:15:06.697Z,-69
2022-12-15T04:17:33.172Z,-69
2022-12-15T04:19:59.678Z,-69
2022-12-15T04:22:26.151Z,-69
2022-12-15T04:24:52.648Z,-69
2022-12-15T04:27:19.132Z,-69
2022-12-15T04:29:45.617Z,-69
2022-12-15T04:32:12.096Z,-69
2022-12-15T04:34:38.569Z,-69
2022-12-15T04:37:05.038Z,-69
2022-12-15T04:39:31.500Z,-69
2022-12-15T04:41:57.957Z,-69
2022-12-15T04:44:24.424Z,-69
2022-12-15T04:46:50.904Z,-69
2022-12-15T04:49:17.352Z,-69
2022-12-15T04:51:43.817Z,-69
2022-12-15T04:54:10.276Z,-69
2022-12-15T04:56:36.747Z,-69
2022-12-15T04:59:03.210Z,-69
2022-12-15T05:01:29.792Z,-69
2022-12-15T05:03:56.349Z,-69
2022-12-15T05:06:22.847Z,-69
2022-12-15T05:08:49.978Z,-70
2022-12-15T05:11:16.763Z,-69
2022-12-15T05:13:43.239Z,-69
2022-12-15T05:16:09.830Z,-69
2022-12-15T05:18:36.340Z,-69
2022-12-15T05:21:02.819Z,-69
2022-12-15T05:23:29.821Z,-69
2022-12-15T05:25:56.506Z,-69
2022-12-15T05:28:22.980Z,-69
2022-12-15T05:30:49.499Z,-69
2022-12-15T05:33:15.992Z,-69
2022-12-15T05:35:42.485Z,-69
2022-12-15T05:38:08.966Z,-69
2022-12-15T05:40:35.458Z,-69
2022-12-15T05:43:01.916Z,-69
2022-12-15T05:45:28.419Z,-69
2022-12-15T05:47:54.881Z,-69
2022-12-15T05:50:21.362Z,-69
2022-12-15T05:52:49.653Z,-69
2022-12-15T05:55:16.242Z,-69
2022-12-15T05:57:42.701Z,-70
2022-12-15T06:00:09.176Z,-69
2022-12-15T06:02:37.912Z,-69
2022-12-15T06:05:04.486Z,-69
2022-12-15T06:07:31.015Z,-69
2022-12-15T06:09:57.481Z,-69
2022-12-15T06:12:23.958Z,-69
2022-12-15T06:14:50.458Z,-69
2022-12-15T06:17:16.912Z,-69
2022-12-15T06:19:43.355Z,-69
2022-12-15T06:22:09.822Z,-69
2022-12-15T06:24:36.287Z,-70
2022-12-15T06:27:02.751Z,-69
2022-12-15T06:29:29.220Z,-69
2022-12-15T06:31:55.776Z,-69
2022-12-15T06:34:22.267Z,-69
2022-12-15T06:36:48.750Z,-69
2022-12-15T06:39:15.268Z,-69
2022-12-15T06:41:41.767Z,-69
2022-12-15T06:44:08.243Z,-69
2022-12-15T06:46:34.787Z,-69
2022-12-15T06:49:01.309Z,-69
2022-12-15T06:51:27.772Z,-69
2022-12-15T06:53:54.517Z,-69
2022-12-15T06:56:23.211Z,-70
2022-12-15T06:58:52.110Z,-69
2022-12-15T07:01:18.658Z,-69
2022-12-15T07:03:45.353Z,-69
2022-12-15T07:06:12.092Z,-69
2022-12-15T07:08:41.619Z,-69
2022-12-15T07:11:08.359Z,-69
2022-12-15T07:13:34.921Z,-69
2022-12-15T07:16:01.555Z,-69
2022-12-15T07:18:28.062Z,-69
2022-12-15T07:20:54.533Z,-69
2022-12-15T07:23:39.692Z,-69
2022-12-15T07:26:11.481Z,-70
2022-12-15T07:28:38.328Z,-70
2022-12-15T07:31:04.844Z,-69
2022-12-15T07:33:31.610Z,-69
2022-12-15T07:35:58.369Z,-69
2022-12-15T07:38:24.836Z,-69
2022-12-15T07:40:51.308Z,-69
2022-12-15T07:43:17.764Z,-69
2022-12-15T07:45:49.768Z,-69
2022-12-15T07:48:17.917Z,-69
2022-12-15T07:50:44.404Z,-69
2022-12-15T07:53:11.264Z,-69
2022-12-15T07:56:05.704Z,-69
2022-12-15T07:58:24.267Z,-69
2022-12-15T08:00:50.789Z,-69
2022-12-15T08:03:17.431Z,-70
2022-12-15T08:05:44.047Z,-69
2022-12-15T08:08:15.199Z,-69
2022-12-15T08:10:41.988Z,-69
2022-12-15T08:13:08.464Z,-69
2022-12-15T08:15:34.959Z,-69
2022-12-15T08:18:01.434Z,-69
2022-12-15T08:20:27.900Z,-69
2022-12-15T08:22:54.352Z,-69
2022-12-15T08:25:20.798Z,-69
2022-12-15T08:27:47.275Z,-69
2022-12-15T08:30:13.750Z,-69
2022-12-15T08:32:40.226Z,-69
2022-12-15T08:35:19.901Z,-69
2022-12-15T08:37:53.159Z,-70
2022-12-15T08:40:19.609Z,-70
2022-12-15T08:42:46.074Z,-69
2022-12-15T08:45:12.547Z,-69
2022-12-15T08:47:39.047Z,-69
2022-12-15T08:50:05.504Z,-69
2022-12-15T08:52:31.977Z,-69
2022-12-15T08:54:58.425Z,-69
2022-12-15T08:57:24.904Z,-69
2022-12-15T08:59:51.387Z,-69
2022-12-15T09:02:17.976Z,-69
2022-12-15T09:04:44.584Z,-69
2022-12-15T09:07:11.115Z,-70
2022-12-15T09:09:37.574Z,-69
2022-12-15T09:12:04.059Z,-69
2022-12-15T09:14:30.581Z,-69
2022-12-15T09:16:57.141Z,-69
2022-12-15T09:19:23.651Z,-69
2022-12-15T09:21:50.121Z,-69
2022-12-15T09:24:25.826Z,-69
2022-12-15T09:26:55.603Z,-69
2022-12-15T09:29:22.056Z,-70
2022-12-15T09:31:48.535Z,-69
2022-12-15T09:34:15.017Z,-69
2022-12-15T09:36:41.500Z,-69
2022-12-15T09:39:07.979Z,-69
2022-12-15T09:41:34.451Z,-69
2022-12-15T09:44:00.914Z,-69
2022-12-15T09:46:27.476Z,-69
2022-12-15T09:48:53.986Z,-69
2022-12-15T09:51:20.453Z,-69
2022-12-15T09:53:55.464Z,-69
2022-12-15T09:56:22.741Z,-69
2022-12-15T09:58:50.527Z,-69
2022-12-15T10:01:17.261Z,-69
2022-12-15T10:03:43.813Z,-69
2022-12-15T10:06:20.909Z,-69
2022-12-15T10:08:50.797Z,-69
2022-12-15T10:11:17.413Z,-69
2022-12-15T10:13:43.881Z,-69
2022-12-15T10:16:10.418Z,-69
2022-12-15T10:18:36.941Z,-69
2022-12-15T10:21:03.424Z,-69
2022-12-15T10:23:30.393Z,-69
2022-12-15T10:25:57.163Z,-70
2022-12-15T10:28:23.635Z,-69
2022-12-15T10:30:50.140Z,-69
2022-12-15T10:33:17.253Z,-69
2022-12-15T10:35:43.808Z,-70
2022-12-15T10:38:10.458Z,-69
2022-12-15T10:40:36.926Z,-70
2022-12-15T10:43:03.389Z,-70
2022-12-15T10:45:29.851Z,-70
2022-12-15T10:47:56.341Z,-70
2022-12-15T10:50:25.071Z,-70
2022-12-15T10:52:51.899Z,-70
2022-12-15T10:55:18.377Z,-70
2022-12-15T10:57:44.875Z,-70
2022-12-15T11:00:17.625Z,-69
2022-12-15T11:02:44.245Z,-70
2022-12-15T11:05:12.277Z,-70
2022-12-15T11:07:38.753Z,-69
2022-12-15T11:15:50.547Z,-70
2022-12-15T11:18:17.445Z,-69
2022-12-15T11:20:43.905Z,-69
2022-12-15T11:23:10.410Z,-69
2022-12-15T11:25:36.897Z,-69
2022-12-15T11:28:03.386Z,-70
2022-12-15T11:30:29.845Z,-70
2022-12-15T11:32:56.309Z,-70
2022-12-15T11:35:22.789Z,-70
2022-12-15T11:37:49.241Z,-69
2022-12-15T11:40:16.662Z,-69
2022-12-15T11:42:43.124Z,-69
2022-12-15T11:45:09.607Z,-69
2022-12-15T11:47:36.081Z,-69
2022-12-15T11:50:02.528Z,-70
2022-12-15T11:52:29.018Z,-69
2022-12-15T11:54:55.527Z,-69
2022-12-15T11:57:22.004Z,-69
2022-12-15T11:59:48.499Z,-69
2022-12-15T12:02:15.279Z,-69
2022-12-15T12:04:44.156Z,-70
2022-12-15T12:07:13.729Z,-70
2022-12-15T12:09:40.226Z,-70
2022-12-15T12:12:06.690Z,-70
2022-12-15T12:14:33.191Z,-69
2022-12-15T12:16:59.670Z,-70
2022-12-15T12:19:26.213Z,-69
2022-12-15T12:21:52.748Z,-69
2022-12-15T12:24:19.222Z,-70
2022-12-15T12:26:46.147Z,-70
2022-12-15T12:29:15.259Z,-70
2022-12-15T12:31:41.708Z,-70
2022-12-15T12:34:08.168Z,-69
2022-12-15T12:36:34.618Z,-69
2022-12-15T12:39:01.091Z,-70
2022-12-15T12:41:27.567Z,-70
2022-12-15T12:43:54.026Z,-70
2022-12-15T12:46:20.508Z,-69
2022-12-15T12:48:48.433Z,-70
2022-12-15T12:51:15.110Z,-70
2022-12-15T12:53:41.563Z,-70
2022-12-15T12:56:08.044Z,-70
2022-12-15T12:58:34.505Z,-70
2022-12-15T13:01:01.099Z,-70
2022-12-15T13:03:27.597Z,-70
2022-12-15T13:05:54.067Z,-70
2022-12-15T13:08:20.543Z,-69
2022-12-15T13:10:47.223Z,-70
2022-12-15T13:13:13.904Z,-70
2022-12-15T13:15:40.406Z,-70
2022-12-15T13:18:06.867Z,-69
2022-12-15T13:20:33.404Z,-70
2022-12-15T13:22:59.874Z,-70
2022-12-15T13:25:26.355Z,-69
2022-12-15T13:27:52.825Z,-70
2022-12-15T13:30:19.314Z,-69
2022-12-15T13:32:45.797Z,-69
2022-12-15T13:35:12.288Z,-69
2022-12-15T13:37:38.819Z,-70
2022-12-15T13:40:05.308Z,-69
2022-12-15T13:42:35.905Z,-69
2022-12-15T13:45:05.516Z,-70
2022-12-15T13:47:32.010Z,-70
2022-12-15T13:50:01.887Z,-70
2022-12-15T13:53:08.691Z,-69
2022-12-15T13:55:15.524Z,-69
2022-12-15T13:57:41.994Z,-69
2022-12-15T14:00:08.458Z,-69
2022-12-15T14:02:34.937Z,-69
2022-12-15T14:05:01.421Z,-69
2022-12-15T14:07:27.897Z,-69
2022-12-15T14:09:54.361Z,-70
2022-12-15T14:12:20.825Z,-69
2022-12-15T14:14:49.223Z,-69
2022-12-15T14:17:15.847Z,-69
2022-12-15T14:19:42.324Z,-69
2022-12-15T14:22:08.798Z,-69
2022-12-15T14:27:21.703Z,-70
2022-12-15T14:29:48.175Z,-70
2022-12-15T14:32:17.272Z,-70
2022-12-15T14:34:43.750Z,-70
2022-12-15T14:37:10.231Z,-69
2022-12-15T14:39:36.707Z,-69
2022-12-15T14:42:03.165Z,-69
2022-12-15T14:44:36.252Z,-69
2022-12-15T14:47:08.450Z,-69
2022-12-15T14:49:35.017Z,-69
2022-12-15T14:52:01.483Z,-69
2022-12-15T14:54:27.955Z,-69
2022-12-15T14:56:54.426Z,-69
2022-12-15T14:59:23.307Z,-69
2022-12-15T15:01:53.179Z,-69
2022-12-15T15:04:24.624Z,-69
2022-12-15T15:06:52.287Z,-69
2022-12-15T15:09:18.843Z,-69
2022-12-15T15:11:45.302Z,-69
2022-12-15T15:14:11.767Z,-69
2022-12-15T15:16:38.281Z,-69
2022-12-15T15:19:04.758Z,-69
2022-12-15T15:21:31.213Z,-69
2022-12-15T15:23:57.679Z,-69
2022-12-15T15:26:24.150Z,-69
2022-12-15T15:28:50.598Z,-70
2022-12-15T15:31:17.090Z,-70
2022-12-15T15:33:43.616Z,-69
2022-12-15T15:36:10.070Z,-70
2022-12-15T15:38:36.654Z,-70
2022-12-15T15:41:03.243Z,-69
2022-12-15T15:43:29.706Z,-68
2022-12-15T15:45:56.204Z,-69
2022-12-15T15:48:22.715Z,-69
2022-12-15T15:50:49.198Z,-75
2022-12-15T15:53:15.673Z,-75
2022-12-15T15:55:42.157Z,-75
2022-12-15T15:58:08.612Z,-75
2022-12-15T16:00:35.100Z,-75
2022-12-15T16:03:01.708Z,-75
2022-12-15T16:05:28.351Z,-74
2022-12-15T16:07:54.820Z,-75
2022-12-15T16:10:21.285Z,-75
2022-12-15T16:12:47.763Z,-75
2022-12-15T16:15:14.212Z,-75
2022-12-15T16:17:40.674Z,-74
2022-12-15T16:20:07.137Z,-76
2022-12-15T16:22:33.608Z,-75
2022-12-15T16:25:00.075Z,-75
2022-12-15T16:27:26.554Z,-75
2022-12-15T16:29:53.018Z,-76
2022-12-15T16:32:19.480Z,-76
2022-12-15T16:34:45.976Z,-76
2022-12-15T16:37:12.625Z,-75
2022-12-15T16:39:39.075Z,-76
2022-12-15T16:42:05.539Z,-75
2022-12-15T16:44:32.003Z,-76
2022-12-15T16:46:58.529Z,-75
2022-12-15T16:49:25.033Z,-76
2022-12-15T16:51:51.496Z,-75
2022-12-15T16:54:17.952Z,-75
2022-12-15T16:56:44.418Z,-76
2022-12-15T16:59:31.945Z,-76
2022-12-15T17:01:57.426Z,-76
2022-12-15T17:04:23.986Z,-76
2022-12-15T17:06:50.436Z,-75
2022-12-15T17:09:16.864Z,-75
2022-12-15T17:11:43.348Z,-76
2022-12-15T17:14:09.804Z,-76
2022-12-15T17:16:36.363Z,-75
2022-12-15T17:19:02.832Z,-75
2022-12-15T17:21:29.444Z,-75
2022-12-15T17:23:55.924Z,-76
2022-12-15T17:26:28.684Z,-76
2022-12-15T17:28:55.852Z,-76
2022-12-15T17:31:22.355Z,-75
2022-12-15T17:33:48.858Z,-75
2022-12-15T17:36:15.308Z,-75
2022-12-15T17:38:41.800Z,-75
2022-12-15T17:41:08.261Z,-76
2022-12-15T17:43:36.088Z,-77
2022-12-15T17:46:02.989Z,-75
2022-12-15T17:48:29.510Z,-75
2022-12-15T17:50:56.001Z,-77
2022-12-15T17:53:22.528Z,-77
2022-12-15T17:55:49.001Z,-77
2022-12-15T17:58:15.474Z,-77
2022-12-15T18:00:47.456Z,-77
2022-12-15T18:03:15.784Z,-77
2022-12-15T18:05:42.820Z,-77
2022-12-15T18:08:09.299Z,-77
2022-12-15T18:10:35.771Z,-76
2022-12-15T18:13:02.230Z,-77
2022-12-15T18:15:28.720Z,-75
2022-12-15T18:17:55.180Z,-77
2022-12-15T18:20:21.642Z,-76
2022-12-15T18:22:48.110Z,-77
2022-12-15T18:25:14.583Z,-75
2022-12-15T18:27:41.059Z,-75
2022-12-15T18:30:07.522Z,-77
2022-12-15T18:32:34.008Z,-77
2022-12-15T18:35:00.461Z,-77
2022-12-15T18:37:26.927Z,-75
2022-12-15T18:39:53.390Z,-75
2022-12-15T18:42:19.892Z,-77
2022-12-15T18:44:46.366Z,-77
2022-12-15T18:47:12.927Z,-76
2022-12-15T18:49:39.513Z,-76
2022-12-15T18:52:05.984Z,-76
2022-12-15T18:54:32.453Z,-76
2022-12-15T18:56:58.933Z,-76
2022-12-15T18:59:25.411Z,-76
2022-12-15T19:01:51.994Z,-76
2022-12-15T19:04:18.528Z,-76
2022-12-15T19:06:44.981Z,-76
2022-12-15T19:09:11.448Z,-76
2022-12-15T19:11:37.906Z,-77
2022-12-15T19:14:04.364Z,-76
2022-12-15T19:16:30.888Z,-76
2022-12-15T19:18:57.377Z,-76
2022-12-15T19:21:23.847Z,-77
2022-12-15T19:23:50.308Z,-77
2022-12-15T19:26:16.771Z,-77
2022-12-15T19:28:43.246Z,-74
2022-12-15T19:31:09.752Z,-77
2022-12-15T19:33:36.318Z,-77
2022-12-15T19:36:02.784Z,-74
2022-12-15T19:38:29.246Z,-77
2022-12-15T19:40:55.724Z,-74
2022-12-15T19:43:22.190Z,-76
2022-12-15T19:45:48.740Z,-76
2022-12-15T19:48:20.043Z,-78
2022-12-15T19:50:49.576Z,-74
2022-12-15T19:53:16.050Z,-76
2022-12-15T19:55:42.536Z,-77
2022-12-15T19:58:09.009Z,-77
2022-12-15T20:00:35.529Z,-77
2022-12-15T20:03:02.299Z,-76
2022-12-15T20:05:28.850Z,-74
2022-12-15T20:07:55.328Z,-75
2022-12-15T20:10:25.999Z,-75
2022-12-15T20:12:56.494Z,-75
2022-12-15T20:15:22.970Z,-77
2022-12-15T20:17:49.421Z,-77
2022-12-15T20:20:15.905Z,-77
2022-12-15T20:22:42.372Z,-76
2022-12-15T20:25:08.843Z,-74
2022-12-15T20:27:35.291Z,-76
2022-12-15T20:30:01.755Z,-76
2022-12-15T20:32:28.222Z,-77
2022-12-15T20:34:54.698Z,-76
2022-12-15T20:37:21.163Z,-77
2022-12-15T20:39:49.442Z,-77
2022-12-15T20:42:19.093Z,-77
2022-12-15T20:44:45.557Z,-77
2022-12-15T20:47:12.022Z,-77
2022-12-15T20:49:38.499Z,-76
2022-12-15T20:52:04.978Z,-77
2022-12-15T20:54:31.447Z,-76
2022-12-15T20:56:57.915Z,-79
2022-12-15T20:59:24.379Z,-76
2022-12-15T21:01:50.908Z,-77
2022-12-15T21:04:18.318Z,-77
2022-12-15T21:06:47.610Z,-77
2022-12-15T21:09:20.688Z,-78
2022-12-15T21:11:50.583Z,-79
2022-12-15T21:14:17.060Z,-77
2022-12-15T21:16:43.563Z,-78
2022-12-15T21:19:26.002Z,-76
2022-12-15T21:21:52.666Z,-76
2022-12-15T21:24:21.806Z,-78
2022-12-15T21:26:48.279Z,-78
2022-12-15T21:29:14.727Z,-77
2022-12-15T21:31:41.190Z,-76
2022-12-15T21:34:07.642Z,-76
2022-12-15T21:36:34.700Z,-77
2022-12-15T21:39:01.162Z,-77
2022-12-15T21:41:27.630Z,-77
2022-12-15T21:43:56.593Z,-76
2022-12-15T21:46:27.669Z,-76
2022-12-15T21:48:54.460Z,-76
2022-12-15T21:51:21.166Z,-77
2022-12-15T21:53:50.595Z,-76
2022-12-15T21:56:17.069Z,-76
2022-12-15T21:58:43.538Z,-76
2022-12-15T22:01:14.714Z,-78
2022-12-15T22:03:41.221Z,-76
2022-12-15T22:06:07.683Z,-76
2022-12-15T22:08:35.138Z,-76
2022-12-15T22:11:01.886Z,-76
2022-12-15T22:13:28.349Z,-77
2022-12-15T22:15:54.876Z,-77
2022-12-15T22:18:21.384Z,-77
2022-12-15T22:20:47.839Z,-76
2022-12-15T22:23:14.299Z,-76
2022-12-15T22:25:40.763Z,-77
2022-12-15T22:28:07.232Z,-77
2022-12-15T22:30:34.269Z,-76
2022-12-15T22:33:00.759Z,-76
2022-12-15T22:35:27.207Z,-76
2022-12-15T22:37:53.804Z,-77
2022-12-15T22:40:20.371Z,-76
2022-12-15T22:42:46.834Z,-76
2022-12-15T22:45:13.316Z,-77
2022-12-15T22:47:39.798Z,-77
2022-12-15T22:50:06.286Z,-77
2022-12-15T22:52:32.747Z,-76
2022-12-15T22:54:59.230Z,-76
2022-12-15T22:57:25.691Z,-77
2022-12-15T22:59:52.158Z,-76
2022-12-15T23:02:21.130Z,-76
2022-12-15T23:04:47.615Z,-76
2022-12-15T23:07:14.117Z,-76
2022-12-15T23:09:40.598Z,-77
2022-12-15T23:12:07.098Z,-77
2022-12-15T23:14:33.568Z,-77
2022-12-15T23:17:00.029Z,-76
2022-12-15T23:19:26.476Z,-78
2022-12-15T23:21:52.945Z,-77
2022-12-15T23:24:19.400Z,-77
2022-12-15T23:26:45.871Z,-77
2022-12-15T23:29:12.347Z,-76
2022-12-15T23:31:38.998Z,-77
2022-12-15T23:34:05.486Z,-77
2022-12-15T23:36:32.031Z,-77
2022-12-15T23:38:58.511Z,-77
2022-12-15T23:41:24.984Z,-74
2022-12-15T23:43:51.565Z,-76
2022-12-15T23:46:18.380Z,-76
2022-12-15T23:48:44.871Z,-76
2022-12-15T23:51:11.325Z,-77
2022-12-15T23:53:37.795Z,-76
2022-12-15T23:56:04.257Z,-76
2022-12-15T23:58:32.726Z,-76
